createdAt,value
2023-04-18T00:05:02.697Z,2.15
2023-04-18T00:10:11.814Z,2.08
2023-04-18T00:15:17.400Z,3.38
2023-04-18T00:20:22.774Z,2.05
2023-04-18T00:25:30.937Z,1.60
2023-04-18T00:30:36.260Z,2.17
2023-04-18T00:35:41.772Z,2.08
2023-04-18T00:40:49.663Z,2.05
2023-04-18T00:51:00.995Z,2.28
2023-04-18T00:56:09.311Z,2.15
2023-04-18T01:01:15.100Z,2.38
2023-04-18T01:06:20.539Z,2.40
2023-04-18T01:11:28.397Z,1.90
2023-04-18T01:21:44.135Z,1.85
2023-04-18T01:26:52.443Z,1.60
2023-04-18T01:31:57.669Z,1.73
2023-04-18T01:37:02.971Z,1.73
2023-04-18T01:42:10.870Z,1.73
2023-04-18T01:53:01.256Z,1.67
2023-04-18T01:58:51.520Z,1.33
2023-04-18T03:06:23.472Z,1.95
2023-04-18T03:11:33.889Z,1.85
2023-04-18T03:16:40.470Z,1.75
2023-04-18T03:21:50.445Z,1.80
2023-04-18T03:26:56.448Z,1.75
2023-04-18T03:32:01.821Z,1.75
2023-04-18T03:37:09.949Z,1.52
2023-04-18T03:42:17.042Z,1.58
2023-04-18T03:47:31.424Z,1.60
2023-04-18T03:52:39.439Z,1.88
2023-04-18T03:57:44.879Z,1.83
2023-04-18T04:02:50.632Z,1.55
2023-04-18T04:08:05.120Z,1.85
2023-04-18T04:13:14.918Z,1.52
2023-04-18T04:18:25.823Z,1.40
2023-04-18T04:23:34.737Z,1.55
2023-04-18T04:28:41.461Z,2.35
2023-04-18T04:33:49.668Z,5.85
2023-04-18T04:38:57.899Z,3.70
2023-04-18T04:44:04.625Z,1.27
2023-04-18T04:49:10.464Z,0.98
2023-04-18T04:54:20.211Z,19.15
2023-04-18T04:59:26.437Z,2.47
2023-04-18T05:04:32.169Z,1.45
2023-04-18T05:09:40.808Z,1.52
2023-04-18T05:14:48.630Z,8.75
2023-04-18T05:25:08.241Z,13.68
2023-04-18T05:35:28.144Z,15.93
2023-04-18T05:40:40.540Z,11.38
2023-04-18T05:45:46.481Z,10.05
2023-04-18T05:50:53.593Z,9.98
2023-04-18T05:56:02.793Z,7.28
2023-04-18T06:01:09.489Z,20.08
2023-04-18T06:06:15.827Z,15.00
2023-04-18T06:11:24.660Z,31.77
2023-04-18T06:16:30.126Z,6.75
2023-04-18T06:21:35.406Z,31.02
2023-04-18T06:26:48.040Z,22.40
2023-04-18T06:32:12.997Z,16.35
2023-04-18T06:37:25.168Z,27.75
2023-04-18T06:43:14.631Z,2.33
2023-04-18T06:49:17.135Z,1.88
2023-04-18T07:00:41.103Z,1.02
2023-04-18T07:05:48.098Z,2.42
2023-04-18T07:10:53.664Z,1.75
2023-04-18T07:16:02.278Z,1.73
2023-04-18T07:21:08.098Z,1.50
2023-04-18T07:26:14.114Z,0.90
2023-04-18T07:31:22.450Z,0.63
2023-04-18T07:36:28.636Z,0.70
2023-04-18T07:41:34.586Z,1.15
2023-04-18T07:46:43.016Z,0.82
2023-04-18T07:51:49.950Z,0.85
2023-04-18T07:56:55.259Z,0.52
2023-04-18T08:02:05.189Z,0.75
2023-04-18T08:07:13.600Z,0.77
2023-04-18T08:12:19.442Z,1.05
2023-04-18T08:17:27.929Z,1.30
2023-04-18T08:22:33.823Z,1.13
2023-04-18T08:27:41.199Z,0.93
2023-04-18T08:32:50.561Z,1.10
2023-04-18T08:37:58.507Z,1.17
2023-04-18T08:43:06.834Z,1.08
2023-04-18T08:48:19.896Z,1.80
2023-04-18T08:53:25.861Z,0.95
2023-04-18T08:58:33.444Z,1.15
2023-04-18T09:03:45.769Z,1.20
2023-04-18T09:09:01.164Z,0.82
2023-04-18T09:14:07.220Z,1.23
2023-04-18T09:19:19.229Z,1.00
2023-04-18T09:24:28.071Z,0.52
2023-04-18T09:29:57.808Z,0.93
2023-04-18T09:35:07.240Z,1.40
2023-04-18T09:40:20.481Z,0.82
2023-04-18T09:45:27.239Z,1.25
2023-04-18T09:50:38.090Z,1.48
2023-04-18T09:55:44.165Z,1.73
2023-04-18T10:00:52.190Z,1.52
2023-04-18T10:06:01.654Z,4.07
2023-04-18T10:11:08.212Z,1.65
2023-04-18T10:16:16.247Z,1.55
2023-04-18T10:21:25.505Z,1.63
2023-04-18T10:26:51.352Z,2.08
2023-04-18T10:31:57.519Z,1.33
2023-04-18T10:37:14.292Z,5.15
2023-04-18T10:42:20.152Z,3.70
2023-04-18T10:47:26.150Z,2.30
2023-04-18T10:52:35.302Z,1.48
2023-04-18T10:57:49.400Z,1.67
2023-04-18T11:03:03.025Z,1.98
2023-04-18T11:13:32.836Z,2.00
2023-04-18T11:18:44.983Z,9.00
2023-04-18T11:23:53.889Z,1.42
2023-04-18T11:29:01.687Z,1.45
2023-04-18T11:34:08.553Z,1.45
2023-04-18T11:39:17.208Z,2.28
2023-04-18T11:44:27.356Z,1.23
2023-04-18T11:49:34.551Z,1.63
2023-04-18T11:54:44.652Z,1.65
2023-04-18T11:59:52.961Z,1.13
2023-04-18T12:05:01.909Z,0.80
2023-04-18T12:10:12.661Z,1.23
2023-04-18T12:15:20.157Z,1.95
2023-04-18T12:20:27.079Z,2.35
2023-04-18T12:25:36.275Z,1.25
2023-04-18T12:30:43.956Z,1.50
2023-04-18T12:35:50.116Z,1.00
2023-04-18T12:40:59.691Z,1.33
2023-04-18T12:46:05.770Z,1.42
2023-04-18T12:51:11.787Z,1.15
2023-04-18T12:56:21.191Z,1.13
2023-04-18T13:01:31.246Z,1.05
2023-04-18T13:06:37.495Z,1.05
2023-04-18T13:11:49.545Z,0.80
2023-04-18T13:16:55.695Z,0.93
2023-04-18T13:22:02.367Z,0.95
2023-04-18T13:27:14.869Z,1.42
2023-04-18T13:32:20.836Z,1.30
2023-04-18T13:37:27.264Z,1.23
2023-04-18T13:42:35.942Z,1.33
2023-04-18T13:47:42.151Z,1.40
2023-04-18T13:52:49.377Z,1.05
2023-04-18T13:57:58.080Z,1.85
2023-04-18T14:03:06.387Z,1.90
2023-04-18T14:08:12.431Z,1.05
2023-04-18T14:13:21.202Z,1.60
2023-04-18T14:18:33.102Z,2.33
2023-04-18T14:23:39.106Z,1.80
2023-04-18T14:28:47.757Z,1.27
2023-04-18T14:33:54.103Z,2.03
2023-04-18T14:39:06.179Z,1.70
2023-04-18T14:44:14.769Z,2.50
2023-04-18T14:49:20.631Z,2.20
2023-04-18T14:54:27.131Z,1.65
2023-04-18T14:59:36.076Z,1.77
2023-04-18T15:04:42.923Z,1.13
2023-04-18T15:09:49.000Z,0.90
2023-04-18T15:14:57.743Z,1.15
2023-04-18T15:20:05.279Z,1.20
2023-04-18T15:30:21.318Z,1.00
2023-04-18T15:35:28.598Z,0.85
2023-04-18T15:40:34.821Z,0.73
2023-04-18T15:45:46.123Z,0.93
2023-04-18T15:50:55.392Z,33.15
2023-04-18T15:56:06.599Z,1.10
2023-04-18T16:01:17.224Z,0.75
2023-04-18T16:06:25.283Z,0.80
2023-04-18T16:11:32.721Z,2.08
2023-04-18T16:21:48.507Z,0.80
2023-04-18T16:32:10.462Z,1.33
2023-04-18T16:37:16.567Z,1.55
2023-04-18T16:42:22.838Z,2.03
2023-04-18T16:47:32.507Z,1.30
2023-04-18T16:52:42.230Z,1.40
2023-04-18T16:57:49.785Z,1.50
2023-04-18T17:08:05.560Z,1.50
2023-04-18T17:13:12.604Z,0.82
2023-04-18T17:18:22.691Z,1.30
2023-04-18T17:23:34.774Z,0.93
2023-04-18T17:28:41.094Z,1.30
2023-04-18T17:33:51.810Z,2.42
2023-04-18T17:39:01.349Z,3.53
2023-04-18T17:44:11.359Z,5.18
2023-04-18T17:49:23.825Z,4.97
2023-04-18T17:54:30.900Z,3.95
2023-04-18T17:59:39.778Z,6.03
2023-04-18T18:04:55.920Z,6.53
2023-04-18T18:10:03.807Z,7.03
2023-04-18T18:15:13.017Z,6.03
2023-04-18T18:20:22.386Z,4.38
2023-04-18T18:25:29.897Z,6.00
2023-04-18T18:30:36.277Z,6.30
2023-04-18T18:35:49.076Z,7.32
2023-04-18T18:40:55.288Z,8.30
2023-04-18T18:46:04.800Z,9.32
2023-04-18T18:51:38.459Z,9.10
2023-04-18T18:56:46.234Z,9.25
2023-04-18T19:02:11.513Z,9.48
2023-04-18T19:07:20.456Z,9.95
2023-04-18T19:12:26.993Z,7.88
2023-04-18T19:17:34.874Z,6.88
2023-04-18T19:22:43.982Z,6.93
2023-04-18T19:27:50.210Z,6.00
2023-04-18T19:32:56.734Z,6.13
2023-04-18T19:38:05.841Z,5.35
2023-04-18T19:43:12.294Z,5.75
2023-04-18T19:48:18.654Z,6.82
2023-04-18T19:53:27.849Z,5.65
2023-04-18T19:58:46.723Z,5.55
2023-04-18T20:03:55.389Z,6.50
2023-04-18T20:09:09.923Z,5.75
2023-04-18T20:14:29.619Z,6.13
2023-04-18T20:19:37.345Z,6.07
2023-04-18T20:29:52.366Z,7.72
2023-04-18T20:35:03.663Z,8.95
2023-04-18T20:40:14.440Z,9.32
2023-04-18T20:45:22.521Z,9.73
2023-04-18T20:50:29.346Z,9.43
2023-04-18T20:55:39.601Z,9.40
2023-04-18T21:00:51.485Z,9.75
2023-04-18T21:05:59.563Z,11.07
2023-04-18T21:11:09.447Z,13.60
2023-04-18T21:16:16.288Z,12.65
2023-04-18T21:21:25.544Z,12.50
2023-04-18T21:26:34.712Z,10.88
2023-04-18T21:31:41.080Z,9.18
2023-04-18T21:36:48.484Z,10.82
2023-04-18T21:41:59.922Z,10.77
2023-04-18T21:47:06.458Z,12.05
2023-04-18T21:52:13.265Z,12.60
2023-04-18T21:57:22.025Z,11.68
2023-04-18T22:02:30.124Z,10.85
2023-04-18T22:07:50.124Z,10.98
2023-04-18T22:13:07.323Z,11.02
2023-04-18T22:18:15.545Z,11.27
2023-04-18T22:23:21.088Z,10.00
2023-04-18T22:28:29.314Z,11.63
2023-04-18T22:33:34.768Z,11.02
2023-04-18T22:38:39.941Z,13.13
2023-04-18T22:43:47.787Z,12.35
2023-04-18T22:48:53.049Z,12.98
2023-04-18T22:53:58.458Z,12.50
2023-04-18T22:59:06.359Z,12.48
2023-04-18T23:04:11.894Z,12.82
2023-04-18T23:09:20.543Z,11.98
2023-04-18T23:14:28.512Z,12.65
2023-04-18T23:19:33.879Z,12.00
2023-04-18T23:24:39.304Z,10.73
2023-04-18T23:29:50.099Z,11.80
2023-04-18T23:34:55.288Z,11.50
2023-04-18T23:40:01.173Z,11.38
2023-04-18T23:45:09.970Z,10.73
2023-04-18T23:50:16.041Z,12.02
2023-04-18T23:55:21.361Z,11.68
